RRS weather

Røros Airport
Røros, Sør-Trøndelag, Norway

Public forecast

Using degrees Celsius for public forecast. Weather courtesy of forecast.io.

Current aviation weather report (METAR) for Røros Airport

Retrieved 2019/10/16 05:20 UTC (21 minutes ago):

ENRO 160520Z 12003KT 070V160 9999 BKN010 02/02 Q1009

Closest aviation forecast (TAF) to Røros Airport

Closest forecast is Trondheim Airport Værnes, 54.0 nm (100.0 km) NNW. Retrieved 2019-10-16 00:57 UTC (5 hours ago):

TAF ENVA 152300Z 1600/1624 12005KT CAVOK PROB40 TEMPO 1600/1624 16015G25KT